createdAt,value
2023-02-26T00:01:21.036Z,96953.59
2023-02-26T00:03:52.010Z,96950.16
2023-02-26T00:06:19.775Z,96934.03
2023-02-26T00:08:46.660Z,96940.84
2023-02-26T00:11:14.626Z,96928.94
2023-02-26T00:13:44.110Z,96928.91
2023-02-26T00:16:30.227Z,96920.38
2023-02-26T00:18:59.333Z,96900.03
2023-02-26T00:21:27.000Z,96912.81
2023-02-26T00:23:54.423Z,96895.88
2023-02-26T00:26:23.445Z,96886.59
2023-02-26T00:28:50.712Z,96885.78
2023-02-26T00:31:18.723Z,96878.16
2023-02-26T00:33:45.878Z,96871.38
2023-02-26T00:36:25.798Z,96857.75
2023-02-26T00:39:07.583Z,96855.28
2023-02-26T00:41:36.277Z,96834.91
2023-02-26T00:44:03.439Z,96825.63
2023-02-26T00:46:42.410Z,96827.34
2023-02-26T00:49:38.095Z,96827.41
2023-02-26T00:52:11.419Z,96829.94
2023-02-26T00:54:38.147Z,96829.09
2023-02-26T00:57:05.969Z,96837.63
2023-02-26T00:59:32.798Z,96843.59
2023-02-26T01:01:59.583Z,96838.56
2023-02-26T01:04:26.717Z,96842.81
2023-02-26T01:06:57.193Z,96836.03
2023-02-26T01:09:33.430Z,96830.09
2023-02-26T01:12:03.795Z,96820.75
2023-02-26T01:14:32.568Z,96829.22
2023-02-26T01:17:15.762Z,96817.34
2023-02-26T01:19:53.382Z,96809.72
2023-02-26T01:22:36.027Z,96808.00
2023-02-26T01:25:16.035Z,96799.53
2023-02-26T01:27:42.934Z,96800.38
2023-02-26T01:30:10.426Z,96797.88
2023-02-26T01:32:43.635Z,96796.19
2023-02-26T01:35:32.425Z,96791.06
2023-02-26T01:38:32.200Z,96785.97
2023-02-26T01:41:04.616Z,96778.34
2023-02-26T01:44:09.950Z,96774.97
2023-02-26T01:47:10.672Z,96774.06
2023-02-26T01:49:38.522Z,96766.44
2023-02-26T01:52:08.059Z,96771.53
2023-02-26T01:54:37.867Z,96758.81
2023-02-26T01:57:10.946Z,96763.06
2023-02-26T01:59:42.573Z,96749.47
2023-02-26T02:02:11.023Z,96746.06
2023-02-26T02:04:39.381Z,96739.31
2023-02-26T02:07:07.061Z,96745.25
2023-02-26T02:09:34.873Z,96741.84
2023-02-26T02:12:32.549Z,96742.59
2023-02-26T02:15:28.362Z,96747.69
2023-02-26T02:18:03.828Z,96744.31
2023-02-26T02:20:52.837Z,96737.50
2023-02-26T02:23:55.724Z,96742.59
2023-02-26T02:26:46.736Z,96746.06
2023-02-26T02:29:32.239Z,96742.69
2023-02-26T02:32:42.032Z,96731.72
2023-02-26T02:35:41.460Z,96724.13
2023-02-26T02:38:19.024Z,96721.63
2023-02-26T02:40:55.846Z,96725.88
2023-02-26T02:43:28.118Z,96713.22
2023-02-26T02:45:57.839Z,96714.91
2023-02-26T02:48:46.319Z,96713.22
2023-02-26T02:51:25.429Z,96703.06
2023-02-26T02:54:15.178Z,96701.31
2023-02-26T02:56:49.135Z,96708.13
2023-02-26T02:59:45.139Z,96700.41
2023-02-26T03:02:11.843Z,96697.88
2023-02-26T03:04:40.105Z,96692.78
2023-02-26T03:07:06.953Z,96702.13
2023-02-26T03:09:34.001Z,96700.41
2023-02-26T03:12:01.074Z,96699.50
2023-02-26T03:14:29.223Z,96696.09
2023-02-26T03:17:08.211Z,96698.56
2023-02-26T03:19:54.477Z,96696.00
2023-02-26T03:22:55.168Z,96695.13
2023-02-26T03:25:26.876Z,96693.38
2023-02-26T03:28:18.064Z,96683.19
2023-02-26T03:30:51.660Z,96689.97
2023-02-26T03:33:25.290Z,96689.91
2023-02-26T03:36:25.098Z,96691.59
2023-02-26T03:38:59.182Z,96694.16
2023-02-26T03:42:02.765Z,96694.97
2023-02-26T03:44:53.201Z,96706.88
2023-02-26T03:47:20.647Z,96700.09
2023-02-26T03:49:56.955Z,96705.19
2023-02-26T03:52:27.093Z,96712.91
2023-02-26T03:55:03.681Z,96710.34
2023-02-26T03:57:31.083Z,96707.81
2023-02-26T03:59:57.898Z,96726.47
2023-02-26T04:02:37.255Z,96734.03
2023-02-26T04:05:08.438Z,96733.22
2023-02-26T04:07:35.184Z,96737.47
2023-02-26T04:10:01.969Z,96725.56
2023-02-26T04:12:29.451Z,96737.44
2023-02-26T04:14:57.411Z,96747.63
2023-02-26T04:17:24.192Z,96747.59
2023-02-26T04:19:50.963Z,96756.06
2023-02-26T04:22:17.825Z,96751.84
2023-02-26T04:24:44.627Z,96759.47
2023-02-26T04:27:11.351Z,96754.38
2023-02-26T04:29:38.079Z,96760.28
2023-02-26T04:32:04.993Z,96766.22
2023-02-26T04:34:31.902Z,96761.16
2023-02-26T04:36:58.785Z,96773.03
2023-02-26T04:39:25.628Z,96778.13
2023-02-26T04:41:52.355Z,96794.25
2023-02-26T04:44:19.059Z,96793.41
2023-02-26T04:46:45.909Z,96797.63
2023-02-26T04:49:12.774Z,96804.44
2023-02-26T04:51:39.508Z,96802.72
2023-02-26T04:54:06.323Z,96805.22
2023-02-26T04:56:33.567Z,96796.69
2023-02-26T04:59:00.543Z,96810.28
2023-02-26T05:01:27.470Z,96815.34
2023-02-26T05:03:54.302Z,96809.44
2023-02-26T05:06:21.222Z,96839.09
2023-02-26T05:08:48.050Z,96837.44
2023-02-26T05:11:14.789Z,96851.06
2023-02-26T05:13:41.528Z,96842.56
2023-02-26T05:16:08.875Z,96864.59
2023-02-26T05:18:35.692Z,96858.66
2023-02-26T05:21:02.749Z,96845.91
2023-02-26T05:23:29.462Z,96880.72
2023-02-26T05:25:57.406Z,96873.13
2023-02-26T05:28:25.820Z,96868.84
2023-02-26T05:30:52.945Z,96868.84
2023-02-26T05:33:19.796Z,96881.59
2023-02-26T05:35:48.205Z,96895.25
2023-02-26T05:38:15.642Z,96883.28
2023-02-26T05:40:42.476Z,96901.13
2023-02-26T05:43:10.369Z,96908.75
2023-02-26T05:45:37.393Z,96945.31
2023-02-26T05:48:04.383Z,96918.94
2023-02-26T05:50:31.287Z,96941.03
2023-02-26T05:52:58.322Z,96925.75
2023-02-26T05:55:25.245Z,96930.88
2023-02-26T05:57:52.010Z,96929.13
2023-02-26T06:00:19.211Z,96939.34
2023-02-26T06:02:46.098Z,96935.94
2023-02-26T06:05:12.927Z,96941.84
2023-02-26T06:07:39.700Z,96948.63
2023-02-26T06:10:08.720Z,96952.03
2023-02-26T06:12:35.916Z,96952.88
2023-02-26T06:15:03.118Z,96963.91
2023-02-26T06:17:30.472Z,96959.63
2023-02-26T06:19:57.303Z,96978.34
2023-02-26T06:22:24.187Z,96965.56
2023-02-26T06:24:50.946Z,96958.78
2023-02-26T06:27:18.269Z,96967.28
2023-02-26T06:29:45.007Z,96971.47
2023-02-26T06:32:11.860Z,96973.19
2023-02-26T06:34:38.685Z,96975.75
2023-02-26T06:37:05.727Z,96983.38
2023-02-26T06:39:32.729Z,96964.63
2023-02-26T06:41:59.895Z,96976.53
2023-02-26T06:44:26.685Z,96996.97
2023-02-26T06:46:53.487Z,96991.78
2023-02-26T06:49:20.348Z,97003.72
2023-02-26T06:51:47.045Z,97007.91
2023-02-26T06:54:13.875Z,97006.22
2023-02-26T06:56:40.607Z,97008.78
2023-02-26T06:59:07.380Z,97025.78
2023-02-26T07:01:34.228Z,97040.22
2023-02-26T07:04:01.009Z,97018.13
2023-02-26T07:06:28.319Z,97040.22
2023-02-26T07:08:55.645Z,97049.59
2023-02-26T07:11:22.946Z,97042.81
2023-02-26T07:13:51.468Z,97028.38
2023-02-26T07:16:18.773Z,97044.50
2023-02-26T07:18:45.618Z,97050.44
2023-02-26T07:21:12.372Z,97035.13
2023-02-26T07:23:39.139Z,97030.00
2023-02-26T07:26:05.899Z,97039.34
2023-02-26T07:28:32.699Z,97045.25
2023-02-26T07:30:59.628Z,97043.53
2023-02-26T07:33:28.435Z,97047.81
2023-02-26T07:35:55.183Z,97048.63
2023-02-26T07:38:21.977Z,97050.31
2023-02-26T07:40:48.939Z,97061.38
2023-02-26T07:43:15.906Z,97064.75
2023-02-26T07:45:42.623Z,97062.22
2023-02-26T07:48:09.431Z,97069.84
2023-02-26T07:50:36.232Z,97064.78
2023-02-26T07:53:03.033Z,97069.88
2023-02-26T07:55:30.026Z,97068.19
2023-02-26T07:57:56.927Z,97080.88
2023-02-26T08:00:23.789Z,97085.16
2023-02-26T08:02:50.551Z,97097.91
2023-02-26T08:05:17.709Z,97090.19
2023-02-26T08:07:44.484Z,97091.88
2023-02-26T08:10:11.949Z,97099.50
2023-02-26T08:12:39.270Z,97095.19
2023-02-26T08:15:06.866Z,97093.38
2023-02-26T08:17:34.415Z,97123.97
2023-02-26T08:20:01.177Z,97121.34
2023-02-26T08:22:28.574Z,97088.97
2023-02-26T08:24:55.833Z,97103.34
2023-02-26T08:27:22.616Z,97122.06
2023-02-26T08:29:50.396Z,97120.41
2023-02-26T08:32:19.844Z,97127.25
2023-02-26T08:34:47.204Z,97137.56
2023-02-26T08:37:14.301Z,97124.81
2023-02-26T08:39:41.221Z,97158.09
2023-02-26T08:42:09.552Z,97163.22
2023-02-26T08:44:36.557Z,97168.38
2023-02-26T08:47:03.962Z,97156.44
2023-02-26T08:49:31.077Z,97164.16
2023-02-26T08:51:57.901Z,97168.41
2023-02-26T08:54:25.154Z,97178.66
2023-02-26T08:56:53.740Z,97187.97
2023-02-26T08:59:20.493Z,97202.47
2023-02-26T09:01:47.384Z,97196.53
2023-02-26T09:04:14.263Z,97192.31
2023-02-26T09:06:41.647Z,97197.44
2023-02-26T09:09:08.707Z,97197.44
2023-02-26T09:11:36.825Z,97213.63
2023-02-26T09:14:04.788Z,97203.38
2023-02-26T09:16:32.116Z,97222.09
2023-02-26T09:18:58.901Z,97199.09
2023-02-26T09:21:25.711Z,97218.66
2023-02-26T09:23:52.621Z,97229.72
2023-02-26T09:26:19.491Z,97226.31
2023-02-26T09:28:46.336Z,97236.56
2023-02-26T09:31:13.366Z,97226.38
2023-02-26T09:33:40.277Z,97221.28
2023-02-26T09:36:07.563Z,97228.09
2023-02-26T09:38:35.936Z,97240.84
2023-02-26T09:41:07.177Z,97229.75
2023-02-26T09:43:33.920Z,97241.63
2023-02-26T09:46:13.834Z,97229.75
2023-02-26T09:48:42.416Z,97241.69
2023-02-26T09:51:15.570Z,97242.50
2023-02-26T09:53:42.536Z,97237.41
2023-02-26T09:56:17.806Z,97233.97
2023-02-26T09:58:45.856Z,97262.88
2023-02-26T10:01:43.910Z,97252.59
2023-02-26T10:04:18.775Z,97260.25
2023-02-26T10:06:46.858Z,97258.53
2023-02-26T10:09:22.706Z,97276.34
2023-02-26T10:11:55.410Z,97265.22
2023-02-26T10:14:38.091Z,97277.94
2023-02-26T10:17:26.627Z,97286.47
2023-02-26T10:19:58.627Z,97282.22
2023-02-26T10:22:25.271Z,97280.50
2023-02-26T10:24:57.927Z,97279.72
2023-02-26T10:27:47.072Z,97296.75
2023-02-26T10:30:27.682Z,97300.97
2023-02-26T10:33:22.056Z,97286.53
2023-02-26T10:35:54.450Z,97300.91
2023-02-26T10:38:27.257Z,97309.41
2023-02-26T10:41:11.670Z,97298.31
2023-02-26T10:43:55.753Z,97293.16
2023-02-26T10:46:32.605Z,97308.44
2023-02-26T10:49:20.870Z,97308.44
2023-02-26T10:51:48.188Z,97307.59
2023-02-26T10:54:37.407Z,97305.88
2023-02-26T10:57:04.344Z,97300.84
2023-02-26T10:59:32.018Z,97311.06
2023-02-26T11:02:00.573Z,97319.53
2023-02-26T11:04:28.054Z,97315.31
2023-02-26T11:06:58.699Z,97312.78
2023-02-26T11:09:34.639Z,97304.25
2023-02-26T11:12:13.786Z,97314.44
2023-02-26T11:14:42.844Z,97318.72
2023-02-26T11:17:32.480Z,97310.16
2023-02-26T11:20:15.726Z,97329.75
2023-02-26T11:22:47.850Z,97317.81
2023-02-26T11:25:19.954Z,97322.91
2023-02-26T11:27:50.985Z,97331.44
2023-02-26T11:30:21.178Z,97324.66
2023-02-26T11:32:54.154Z,97340.81
2023-02-26T11:35:24.487Z,97341.63
2023-02-26T11:37:58.590Z,97340.72
2023-02-26T11:40:39.261Z,97343.19
2023-02-26T11:43:10.622Z,97345.78
2023-02-26T11:45:42.068Z,97331.31
2023-02-26T11:48:16.586Z,97324.47
2023-02-26T11:50:47.539Z,97321.88
2023-02-26T11:53:35.690Z,97328.63
2023-02-26T11:56:09.170Z,97361.84
2023-02-26T11:58:39.298Z,97371.31
2023-02-26T12:01:10.601Z,97324.50
2023-02-26T12:03:42.592Z,97338.09
2023-02-26T12:06:16.504Z,97329.53
2023-02-26T12:08:43.301Z,97344.94
2023-02-26T12:11:52.028Z,97326.16
2023-02-26T12:14:27.706Z,97342.44
2023-02-26T12:17:26.385Z,97341.56
2023-02-26T12:20:32.310Z,97379.94
2023-02-26T12:23:11.272Z,97387.63
2023-02-26T12:25:47.281Z,97425.16
2023-02-26T12:28:23.378Z,97443.28
2023-02-26T12:31:18.238Z,97423.72
2023-02-26T12:33:55.213Z,97427.13
2023-02-26T12:36:49.465Z,97415.22
2023-02-26T12:39:38.422Z,97391.44
2023-02-26T12:42:27.100Z,97392.31
2023-02-26T12:45:16.843Z,97406.72
2023-02-26T12:47:54.638Z,97403.31
2023-02-26T12:50:24.751Z,97410.09
2023-02-26T12:53:18.392Z,97412.66
2023-02-26T12:55:54.040Z,97425.41
2023-02-26T12:58:32.962Z,97416.06
2023-02-26T13:01:12.022Z,97427.97
2023-02-26T13:04:00.441Z,97421.16
2023-02-26T13:06:51.992Z,97472.97
2023-02-26T13:09:37.490Z,97460.25
2023-02-26T13:12:29.033Z,97449.22
2023-02-26T13:15:04.169Z,97444.97
2023-02-26T13:17:37.556Z,97461.97
2023-02-26T13:20:25.452Z,97458.59
2023-02-26T13:22:57.844Z,97455.16
2023-02-26T13:25:39.205Z,97463.69
2023-02-26T13:28:20.564Z,97471.31
2023-02-26T13:30:55.791Z,97478.09
2023-02-26T13:33:30.730Z,97465.34
2023-02-26T13:35:59.000Z,97473.00
2023-02-26T13:38:42.295Z,97479.81
2023-02-26T13:41:15.086Z,97477.22
2023-02-26T13:43:57.143Z,97488.28
2023-02-26T13:46:32.702Z,97492.53
2023-02-26T13:49:04.100Z,97515.44
2023-02-26T13:51:37.396Z,97498.47
2023-02-26T13:54:16.623Z,97523.91
2023-02-26T13:56:49.533Z,97527.25
2023-02-26T13:59:20.227Z,97534.03
2023-02-26T14:01:50.085Z,97528.91
2023-02-26T14:04:23.211Z,97522.09
2023-02-26T14:06:52.606Z,97544.16
2023-02-26T14:09:22.198Z,97550.88
2023-02-26T14:12:01.967Z,97550.91
2023-02-26T14:14:40.666Z,97561.94
2023-02-26T14:17:07.872Z,97565.28
2023-02-26T14:19:44.055Z,97584.78
2023-02-26T14:22:26.025Z,97611.09
2023-02-26T14:25:18.298Z,97589.78
2023-02-26T14:27:47.894Z,97594.91
2023-02-26T14:30:34.618Z,97588.97
2023-02-26T14:33:08.070Z,97594.88
2023-02-26T14:35:43.479Z,97596.56
2023-02-26T14:38:20.615Z,97598.25
2023-02-26T14:40:55.634Z,97596.53
2023-02-26T14:43:39.997Z,97593.16
2023-02-26T14:46:09.773Z,97615.22
2023-02-26T14:48:37.920Z,97591.41
2023-02-26T14:51:35.726Z,97600.75
2023-02-26T14:54:15.807Z,97618.53
2023-02-26T14:57:01.124Z,97617.66
2023-02-26T14:59:27.847Z,97673.59
2023-02-26T15:02:46.445Z,97653.22
2023-02-26T15:05:51.100Z,97650.63
2023-02-26T15:08:43.260Z,97645.50
2023-02-26T15:11:28.601Z,97645.56
2023-02-26T15:14:17.220Z,97664.16
2023-02-26T15:17:13.483Z,97687.81
2023-02-26T15:20:04.899Z,97660.56
2023-02-26T15:23:18.417Z,97679.13
2023-02-26T15:25:48.350Z,97691.75
2023-02-26T15:28:35.570Z,97678.16
2023-02-26T15:31:06.373Z,97682.38
2023-02-26T15:33:34.322Z,97690.00
2023-02-26T15:36:05.230Z,97692.56
2023-02-26T15:38:48.771Z,97704.44
2023-02-26T15:41:17.483Z,97717.00
2023-02-26T15:43:50.541Z,97707.69
2023-02-26T15:46:18.213Z,97712.63
2023-02-26T15:48:45.494Z,97751.50
2023-02-26T15:51:14.993Z,97721.88
2023-02-26T15:53:48.779Z,97735.44
2023-02-26T15:56:22.950Z,97743.06
2023-02-26T15:58:55.043Z,97743.03
2023-02-26T16:01:24.878Z,97737.16
2023-02-26T16:03:54.407Z,97765.16
2023-02-26T16:06:30.390Z,97746.47
2023-02-26T16:08:58.221Z,97782.03
2023-02-26T16:11:33.437Z,97753.16
2023-02-26T16:14:01.853Z,97781.03
2023-02-26T16:16:50.419Z,97773.38
2023-02-26T16:19:20.935Z,97782.66
2023-02-26T16:21:48.874Z,97780.94
2023-02-26T16:24:23.099Z,97786.72
2023-02-26T16:26:56.227Z,97805.28
2023-02-26T16:29:27.285Z,97796.78
2023-02-26T16:32:00.556Z,97802.72
2023-02-26T16:34:44.405Z,97811.13
2023-02-26T16:37:29.578Z,97812.00
2023-02-26T16:39:59.632Z,97796.72
2023-02-26T16:42:50.870Z,97823.81
2023-02-26T16:45:17.944Z,97798.44
2023-02-26T16:47:48.671Z,97815.38
2023-02-26T16:50:24.508Z,97816.34
2023-02-26T16:53:01.402Z,97818.06
2023-02-26T16:55:31.520Z,97878.13
2023-02-26T16:58:02.845Z,97840.03
2023-02-26T17:00:33.098Z,97853.59
2023-02-26T17:03:04.715Z,97859.53
2023-02-26T17:05:34.929Z,97874.72
2023-02-26T17:08:06.976Z,97874.63
2023-02-26T17:10:39.963Z,97862.75
2023-02-26T17:13:17.556Z,97867.75
2023-02-26T17:15:46.637Z,97882.97
2023-02-26T17:18:14.105Z,97892.84
2023-02-26T17:20:41.440Z,97880.94
2023-02-26T17:23:09.846Z,97892.69
2023-02-26T17:25:42.377Z,97885.16
2023-02-26T17:28:15.596Z,97915.63
2023-02-26T17:30:42.427Z,97918.88
2023-02-26T17:33:13.484Z,97899.44
2023-02-26T17:35:41.580Z,97888.28
2023-02-26T17:38:13.345Z,97907.81
2023-02-26T17:40:41.134Z,97908.63
2023-02-26T17:43:10.009Z,97921.22
2023-02-26T17:45:40.265Z,97933.00
2023-02-26T17:48:07.905Z,97930.56
2023-02-26T17:50:54.603Z,97933.13
2023-02-26T17:53:23.850Z,97944.06
2023-02-26T17:55:56.635Z,97973.59
2023-02-26T17:58:29.668Z,97949.94
2023-02-26T18:00:57.404Z,97942.22
2023-02-26T18:03:24.472Z,97939.66
2023-02-26T18:05:54.674Z,97943.91
2023-02-26T18:08:28.429Z,97938.03
2023-02-26T18:10:56.596Z,97952.47
2023-02-26T18:13:23.741Z,97958.44
2023-02-26T18:15:52.241Z,97961.81
2023-02-26T18:18:21.855Z,97953.38
2023-02-26T18:20:49.559Z,97962.63
2023-02-26T18:23:19.006Z,97995.63
2023-02-26T18:25:49.835Z,97992.28
2023-02-26T18:28:24.440Z,97980.41
2023-02-26T18:30:53.311Z,97987.91
2023-02-26T18:33:23.593Z,97990.28
2023-02-26T18:35:55.375Z,97997.94
2023-02-26T18:38:24.319Z,98008.84
2023-02-26T18:40:52.664Z,98000.44
2023-02-26T18:43:21.265Z,98007.09
2023-02-26T18:45:50.377Z,98006.28
2023-02-26T18:48:20.644Z,98052.69
2023-02-26T18:50:49.252Z,98046.72
2023-02-26T18:53:17.941Z,98019.53
2023-02-26T18:55:45.855Z,98028.00
2023-02-26T18:58:13.636Z,98035.66
2023-02-26T19:00:42.010Z,98048.34
2023-02-26T19:03:09.507Z,98035.56
2023-02-26T19:05:37.039Z,98032.06
2023-02-26T19:08:04.701Z,98037.81
2023-02-26T19:10:32.099Z,98053.84
2023-02-26T19:12:59.435Z,98037.72
2023-02-26T19:15:27.384Z,98037.75
2023-02-26T19:17:54.969Z,98054.56
2023-02-26T19:20:22.398Z,98065.56
2023-02-26T19:22:49.671Z,98079.91
2023-02-26T19:25:17.069Z,98070.59
2023-02-26T19:27:44.186Z,98073.91
2023-02-26T19:30:11.871Z,98112.84
2023-02-26T19:32:39.093Z,98100.91
2023-02-26T19:35:07.962Z,98095.94
2023-02-26T19:37:35.448Z,98134.78
2023-02-26T19:40:07.191Z,98104.34
2023-02-26T19:42:34.340Z,98144.91
2023-02-26T19:45:01.688Z,98168.56
2023-02-26T19:47:31.238Z,98098.34
2023-02-26T19:49:58.712Z,98122.00
2023-02-26T19:52:26.180Z,98115.28
2023-02-26T19:54:53.151Z,98132.25
2023-02-26T19:57:21.242Z,98117.03
2023-02-26T19:59:48.726Z,98124.53
2023-02-26T20:02:16.271Z,98109.41
2023-02-26T20:04:43.080Z,98128.94
2023-02-26T20:07:10.142Z,98186.47
2023-02-26T20:09:37.006Z,98154.38
2023-02-26T20:12:03.918Z,98157.63
2023-02-26T20:14:30.736Z,98148.19
2023-02-26T20:16:57.695Z,98145.09
2023-02-26T20:19:24.522Z,98141.50
2023-02-26T20:21:51.303Z,98144.84
2023-02-26T20:24:20.112Z,98154.97
2023-02-26T20:26:48.943Z,98170.13
2023-02-26T20:29:18.482Z,98175.19
2023-02-26T20:31:49.564Z,98187.03
2023-02-26T20:34:20.317Z,98188.03
2023-02-26T20:36:54.588Z,98187.03
2023-02-26T20:39:22.445Z,98221.63
2023-02-26T20:41:50.522Z,98189.44
2023-02-26T20:44:17.802Z,98207.19
2023-02-26T20:46:44.758Z,98200.38
2023-02-26T20:49:11.794Z,98234.22
2023-02-26T20:51:41.043Z,98220.75
2023-02-26T20:54:09.501Z,98219.84
2023-02-26T20:56:36.369Z,98214.88
2023-02-26T20:59:03.353Z,98237.69
2023-02-26T21:01:35.562Z,98249.53
2023-02-26T21:04:04.794Z,98227.59
2023-02-26T21:06:32.418Z,98218.34
2023-02-26T21:09:00.292Z,98243.72
2023-02-26T21:11:31.753Z,98257.28
2023-02-26T21:13:59.202Z,98232.75
2023-02-26T21:16:28.506Z,98260.69
2023-02-26T21:18:57.080Z,98258.28
2023-02-26T21:21:24.370Z,98264.03
2023-02-26T21:23:53.063Z,98262.41
2023-02-26T21:26:20.898Z,98268.34
2023-02-26T21:28:48.518Z,98301.97
2023-02-26T21:31:17.677Z,98282.72
2023-02-26T21:33:45.079Z,98277.59
2023-02-26T21:36:14.076Z,98291.00
2023-02-26T21:38:42.100Z,98295.84
2023-02-26T21:41:09.042Z,98311.03
2023-02-26T21:43:36.001Z,98296.66
2023-02-26T21:46:03.782Z,98315.19
2023-02-26T21:48:30.666Z,98304.19
2023-02-26T21:50:59.667Z,98312.66
2023-02-26T21:53:26.951Z,98341.50
2023-02-26T21:55:54.498Z,98349.16
2023-02-26T21:58:21.451Z,98366.88
2023-02-26T22:00:48.540Z,98337.88
2023-02-26T22:03:15.464Z,98330.25
2023-02-26T22:05:42.536Z,98333.75
2023-02-26T22:08:09.729Z,98372.69
2023-02-26T22:10:36.574Z,98385.22
2023-02-26T22:13:03.559Z,98379.09
2023-02-26T22:15:30.341Z,98367.44
2023-02-26T22:17:57.085Z,98394.41
2023-02-26T22:20:23.885Z,98377.47
2023-02-26T22:22:51.807Z,98396.91
2023-02-26T22:25:18.788Z,98386.75
2023-02-26T22:27:45.555Z,98383.38
2023-02-26T22:30:12.695Z,98388.50
2023-02-26T22:32:39.557Z,98391.78
2023-02-26T22:35:06.950Z,98388.44
2023-02-26T22:37:33.935Z,98422.13
2023-02-26T22:40:00.668Z,98412.88
2023-02-26T22:42:27.417Z,98433.06
2023-02-26T22:44:54.160Z,98440.56
2023-02-26T22:47:21.078Z,98445.56
2023-02-26T22:49:47.988Z,98436.22
2023-02-26T22:52:15.167Z,98444.53
2023-02-26T22:54:42.024Z,98475.75
2023-02-26T22:57:08.768Z,98465.50
2023-02-26T22:59:35.495Z,98457.84
2023-02-26T23:02:02.485Z,98464.56
2023-02-26T23:04:29.320Z,98465.31
2023-02-26T23:06:56.081Z,98469.59
2023-02-26T23:09:22.829Z,98474.66
2023-02-26T23:11:49.990Z,98469.50
2023-02-26T23:14:17.012Z,98467.75
2023-02-26T23:16:44.408Z,98466.97
2023-02-26T23:19:11.906Z,98463.75
2023-02-26T23:21:38.693Z,98513.56
2023-02-26T23:24:05.545Z,98491.38
2023-02-26T23:26:32.438Z,98515.09
2023-02-26T23:28:59.365Z,98503.16
2023-02-26T23:31:26.686Z,98504.09
2023-02-26T23:33:53.774Z,98526.19
2023-02-26T23:36:20.583Z,98523.41
2023-02-26T23:38:47.349Z,98553.81
2023-02-26T23:41:14.143Z,98543.63
2023-02-26T23:43:40.857Z,98520.03
2023-02-26T23:46:07.677Z,98534.34
2023-02-26T23:48:34.476Z,98539.34
2023-02-26T23:51:01.986Z,98513.34
2023-02-26T23:53:28.757Z,98532.06
2023-02-26T23:55:59.261Z,98540.63
2023-02-26T23:58:27.877Z,98540.53
